sensor_id;sensor_type;location;lat;lon;timestamp;temperature;humidity
54938;DHT22;52756;52.826;6.214;2023-05-29T00:02:12;14.30;58.20
54938;DHT22;52756;52.826;6.214;2023-05-29T00:04:38;14.30;58.20
54938;DHT22;52756;52.826;6.214;2023-05-29T00:07:04;14.30;58.10
54938;DHT22;52756;52.826;6.214;2023-05-29T00:09:30;14.30;58.10
54938;DHT22;52756;52.826;6.214;2023-05-29T00:11:56;14.30;58.10
54938;DHT22;52756;52.826;6.214;2023-05-29T00:14:21;14.30;58.10
54938;DHT22;52756;52.826;6.214;2023-05-29T00:16:49;14.20;58.10
54938;DHT22;52756;52.826;6.214;2023-05-29T00:19:16;14.20;58.00
54938;DHT22;52756;52.826;6.214;2023-05-29T00:21:47;14.20;58.00
54938;DHT22;52756;52.826;6.214;2023-05-29T00:24:14;14.20;58.00
54938;DHT22;52756;52.826;6.214;2023-05-29T00:26:40;14.10;58.00
54938;DHT22;52756;52.826;6.214;2023-05-29T00:29:06;14.10;57.90
54938;DHT22;52756;52.826;6.214;2023-05-29T00:31:32;14.10;58.00
54938;DHT22;52756;52.826;6.214;2023-05-29T00:33:58;14.10;58.00
54938;DHT22;52756;52.826;6.214;2023-05-29T00:36:24;14.10;58.00
54938;DHT22;52756;52.826;6.214;2023-05-29T00:38:50;14.10;58.00
54938;DHT22;52756;52.826;6.214;2023-05-29T00:41:16;14.00;58.00
54938;DHT22;52756;52.826;6.214;2023-05-29T00:43:43;14.00;58.00
54938;DHT22;52756;52.826;6.214;2023-05-29T00:46:09;14.00;58.00
54938;DHT22;52756;52.826;6.214;2023-05-29T00:48:38;13.90;58.10
54938;DHT22;52756;52.826;6.214;2023-05-29T00:51:04;13.90;58.50
54938;DHT22;52756;52.826;6.214;2023-05-29T00:53:30;13.90;58.20
54938;DHT22;52756;52.826;6.214;2023-05-29T00:55:58;13.90;58.20
54938;DHT22;52756;52.826;6.214;2023-05-29T00:58:24;13.80;58.20
54938;DHT22;52756;52.826;6.214;2023-05-29T01:00:50;13.80;58.20
54938;DHT22;52756;52.826;6.214;2023-05-29T01:03:18;13.80;58.30
54938;DHT22;52756;52.826;6.214;2023-05-29T01:05:44;13.80;58.30
54938;DHT22;52756;52.826;6.214;2023-05-29T01:08:12;13.80;58.30
54938;DHT22;52756;52.826;6.214;2023-05-29T01:10:38;13.80;58.40
54938;DHT22;52756;52.826;6.214;2023-05-29T01:13:19;13.70;58.30
54938;DHT22;52756;52.826;6.214;2023-05-29T01:26:50;13.60;58.50
54938;DHT22;52756;52.826;6.214;2023-05-29T01:29:26;13.60;58.60
54938;DHT22;52756;52.826;6.214;2023-05-29T01:31:54;13.60;58.60
54938;DHT22;52756;52.826;6.214;2023-05-29T01:34:20;13.50;58.50
54938;DHT22;52756;52.826;6.214;2023-05-29T01:36:46;13.50;58.60
54938;DHT22;52756;52.826;6.214;2023-05-29T01:39:15;13.50;58.60
54938;DHT22;52756;52.826;6.214;2023-05-29T01:41:42;13.40;58.50
54938;DHT22;52756;52.826;6.214;2023-05-29T01:44:09;13.40;58.70
54938;DHT22;52756;52.826;6.214;2023-05-29T01:46:40;13.40;58.70
54938;DHT22;52756;52.826;6.214;2023-05-29T01:49:06;13.30;58.80
54938;DHT22;52756;52.826;6.214;2023-05-29T01:51:33;13.30;58.90
54938;DHT22;52756;52.826;6.214;2023-05-29T01:53:59;13.30;59.00
54938;DHT22;52756;52.826;6.214;2023-05-29T01:56:26;13.20;59.00
54938;DHT22;52756;52.826;6.214;2023-05-29T01:58:56;13.20;59.00
54938;DHT22;52756;52.826;6.214;2023-05-29T02:01:22;13.20;59.10
54938;DHT22;52756;52.826;6.214;2023-05-29T02:03:48;13.20;59.10
54938;DHT22;52756;52.826;6.214;2023-05-29T02:06:14;13.20;59.20
54938;DHT22;52756;52.826;6.214;2023-05-29T02:08:40;13.10;59.10
54938;DHT22;52756;52.826;6.214;2023-05-29T02:11:06;13.10;59.10
54938;DHT22;52756;52.826;6.214;2023-05-29T02:13:32;13.10;59.10
54938;DHT22;52756;52.826;6.214;2023-05-29T02:15:58;13.10;59.20
54938;DHT22;52756;52.826;6.214;2023-05-29T02:18:23;13.10;59.20
54938;DHT22;52756;52.826;6.214;2023-05-29T02:20:49;13.10;59.30
54938;DHT22;52756;52.826;6.214;2023-05-29T02:23:15;13.10;59.30
54938;DHT22;52756;52.826;6.214;2023-05-29T02:25:41;13.10;59.30
54938;DHT22;52756;52.826;6.214;2023-05-29T02:28:07;13.10;59.30
54938;DHT22;52756;52.826;6.214;2023-05-29T02:30:34;13.10;59.20
54938;DHT22;52756;52.826;6.214;2023-05-29T02:32:59;13.00;59.20
54938;DHT22;52756;52.826;6.214;2023-05-29T02:35:25;13.00;59.20
54938;DHT22;52756;52.826;6.214;2023-05-29T02:37:52;13.00;59.10
54938;DHT22;52756;52.826;6.214;2023-05-29T02:40:18;13.00;59.20
54938;DHT22;52756;52.826;6.214;2023-05-29T02:42:44;13.00;59.10
54938;DHT22;52756;52.826;6.214;2023-05-29T02:45:10;13.00;59.10
54938;DHT22;52756;52.826;6.214;2023-05-29T02:47:36;13.00;59.00
54938;DHT22;52756;52.826;6.214;2023-05-29T02:50:03;13.00;59.00
54938;DHT22;52756;52.826;6.214;2023-05-29T02:52:31;12.90;58.90
54938;DHT22;52756;52.826;6.214;2023-05-29T02:54:56;12.90;58.90
54938;DHT22;52756;52.826;6.214;2023-05-29T02:57:24;12.90;58.90
54938;DHT22;52756;52.826;6.214;2023-05-29T02:59:50;12.90;58.90
54938;DHT22;52756;52.826;6.214;2023-05-29T03:02:17;12.90;58.90
54938;DHT22;52756;52.826;6.214;2023-05-29T03:04:44;12.90;58.90
54938;DHT22;52756;52.826;6.214;2023-05-29T03:07:09;12.90;58.90
54938;DHT22;52756;52.826;6.214;2023-05-29T03:09:35;12.80;58.90
54938;DHT22;52756;52.826;6.214;2023-05-29T03:12:01;12.80;58.80
54938;DHT22;52756;52.826;6.214;2023-05-29T03:14:27;12.80;58.80
54938;DHT22;52756;52.826;6.214;2023-05-29T03:16:53;12.80;59.20
54938;DHT22;52756;52.826;6.214;2023-05-29T03:19:19;12.70;58.90
54938;DHT22;52756;52.826;6.214;2023-05-29T03:21:45;12.70;58.90
54938;DHT22;52756;52.826;6.214;2023-05-29T03:24:11;12.70;58.90
54938;DHT22;52756;52.826;6.214;2023-05-29T03:26:39;12.70;59.00
54938;DHT22;52756;52.826;6.214;2023-05-29T03:29:05;12.70;59.00
54938;DHT22;52756;52.826;6.214;2023-05-29T03:31:31;12.70;59.00
54938;DHT22;52756;52.826;6.214;2023-05-29T03:33:58;12.70;59.00
54938;DHT22;52756;52.826;6.214;2023-05-29T03:36:23;12.60;59.00
54938;DHT22;52756;52.826;6.214;2023-05-29T03:38:49;12.60;59.00
54938;DHT22;52756;52.826;6.214;2023-05-29T03:41:15;12.60;59.10
54938;DHT22;52756;52.826;6.214;2023-05-29T03:43:41;12.50;59.10
54938;DHT22;52756;52.826;6.214;2023-05-29T03:46:07;12.50;59.10
54938;DHT22;52756;52.826;6.214;2023-05-29T03:48:33;12.50;59.10
54938;DHT22;52756;52.826;6.214;2023-05-29T03:50:58;12.50;59.20
54938;DHT22;52756;52.826;6.214;2023-05-29T03:53:24;12.50;59.20
54938;DHT22;52756;52.826;6.214;2023-05-29T03:55:50;12.50;59.20
54938;DHT22;52756;52.826;6.214;2023-05-29T03:58:15;12.50;59.30
54938;DHT22;52756;52.826;6.214;2023-05-29T04:00:41;12.40;59.30
54938;DHT22;52756;52.826;6.214;2023-05-29T04:03:08;12.40;59.30
54938;DHT22;52756;52.826;6.214;2023-05-29T04:05:34;12.40;59.40
54938;DHT22;52756;52.826;6.214;2023-05-29T04:08:00;12.40;59.50
54938;DHT22;52756;52.826;6.214;2023-05-29T04:10:26;12.30;59.50
54938;DHT22;52756;52.826;6.214;2023-05-29T04:12:52;12.30;59.60
54938;DHT22;52756;52.826;6.214;2023-05-29T04:15:17;12.30;59.60
54938;DHT22;52756;52.826;6.214;2023-05-29T04:17:43;12.30;59.60
54938;DHT22;52756;52.826;6.214;2023-05-29T04:20:09;12.30;59.70
54938;DHT22;52756;52.826;6.214;2023-05-29T04:22:36;12.30;59.80
54938;DHT22;52756;52.826;6.214;2023-05-29T04:25:02;12.30;59.80
54938;DHT22;52756;52.826;6.214;2023-05-29T04:27:29;12.30;59.90
54938;DHT22;52756;52.826;6.214;2023-05-29T04:29:55;12.30;60.00
54938;DHT22;52756;52.826;6.214;2023-05-29T04:32:21;12.20;60.00
54938;DHT22;52756;52.826;6.214;2023-05-29T04:34:47;12.20;60.00
54938;DHT22;52756;52.826;6.214;2023-05-29T04:37:13;12.20;60.10
54938;DHT22;52756;52.826;6.214;2023-05-29T04:39:39;12.20;60.20
54938;DHT22;52756;52.826;6.214;2023-05-29T04:42:05;12.20;60.20
54938;DHT22;52756;52.826;6.214;2023-05-29T04:44:31;12.20;60.30
54938;DHT22;52756;52.826;6.214;2023-05-29T04:46:56;12.20;60.50
54938;DHT22;52756;52.826;6.214;2023-05-29T04:49:23;12.20;60.60
54938;DHT22;52756;52.826;6.214;2023-05-29T04:51:49;12.20;60.70
54938;DHT22;52756;52.826;6.214;2023-05-29T04:54:18;12.20;61.30
54938;DHT22;52756;52.826;6.214;2023-05-29T04:56:45;12.20;61.00
54938;DHT22;52756;52.826;6.214;2023-05-29T04:59:12;12.20;61.20
54938;DHT22;52756;52.826;6.214;2023-05-29T05:01:37;12.20;61.40
54938;DHT22;52756;52.826;6.214;2023-05-29T05:04:03;12.20;61.70
54938;DHT22;52756;52.826;6.214;2023-05-29T05:06:29;12.20;62.10
54938;DHT22;52756;52.826;6.214;2023-05-29T05:08:55;12.30;62.70
54938;DHT22;52756;52.826;6.214;2023-05-29T05:11:22;12.30;63.10
54938;DHT22;52756;52.826;6.214;2023-05-29T05:13:48;12.40;63.40
54938;DHT22;52756;52.826;6.214;2023-05-29T05:16:14;12.50;63.40
54938;DHT22;52756;52.826;6.214;2023-05-29T05:18:40;12.60;63.40
54938;DHT22;52756;52.826;6.214;2023-05-29T05:21:06;12.70;63.30
54938;DHT22;52756;52.826;6.214;2023-05-29T05:23:32;12.90;63.30
54938;DHT22;52756;52.826;6.214;2023-05-29T05:25:58;13.00;62.90
54938;DHT22;52756;52.826;6.214;2023-05-29T05:28:24;13.20;62.80
54938;DHT22;52756;52.826;6.214;2023-05-29T05:30:49;13.30;62.30
54938;DHT22;52756;52.826;6.214;2023-05-29T05:33:16;13.60;61.80
54938;DHT22;52756;52.826;6.214;2023-05-29T05:35:42;13.70;61.40
54938;DHT22;52756;52.826;6.214;2023-05-29T05:38:08;13.90;60.80
54938;DHT22;52756;52.826;6.214;2023-05-29T05:40:33;14.10;60.20
54938;DHT22;52756;52.826;6.214;2023-05-29T05:42:59;14.30;59.90
54938;DHT22;52756;52.826;6.214;2023-05-29T05:45:25;14.60;59.60
54938;DHT22;52756;52.826;6.214;2023-05-29T05:47:50;14.90;58.60
54938;DHT22;52756;52.826;6.214;2023-05-29T05:50:16;15.20;58.20
54938;DHT22;52756;52.826;6.214;2023-05-29T05:52:42;15.60;57.60
54938;DHT22;52756;52.826;6.214;2023-05-29T05:55:08;15.90;56.70
54938;DHT22;52756;52.826;6.214;2023-05-29T05:57:34;16.30;55.80
54938;DHT22;52756;52.826;6.214;2023-05-29T06:00:06;16.60;54.70
54938;DHT22;52756;52.826;6.214;2023-05-29T06:02:39;16.80;54.30
54938;DHT22;52756;52.826;6.214;2023-05-29T06:05:08;17.00;53.10
54938;DHT22;52756;52.826;6.214;2023-05-29T06:07:35;17.20;52.20
54938;DHT22;52756;52.826;6.214;2023-05-29T06:10:01;17.30;50.90
54938;DHT22;52756;52.826;6.214;2023-05-29T06:12:27;17.30;50.70
54938;DHT22;52756;52.826;6.214;2023-05-29T06:14:53;17.40;50.20
54938;DHT22;52756;52.826;6.214;2023-05-29T06:17:18;17.40;50.00
54938;DHT22;52756;52.826;6.214;2023-05-29T06:19:44;17.50;49.80
54938;DHT22;52756;52.826;6.214;2023-05-29T06:22:10;17.60;49.30
54938;DHT22;52756;52.826;6.214;2023-05-29T06:24:35;17.60;49.00
54938;DHT22;52756;52.826;6.214;2023-05-29T06:27:01;17.70;48.60
54938;DHT22;52756;52.826;6.214;2023-05-29T06:29:27;17.70;47.90
54938;DHT22;52756;52.826;6.214;2023-05-29T06:31:53;17.70;47.60
54938;DHT22;52756;52.826;6.214;2023-05-29T06:34:18;17.80;47.30
54938;DHT22;52756;52.826;6.214;2023-05-29T06:36:44;17.80;47.10
54938;DHT22;52756;52.826;6.214;2023-05-29T06:39:10;17.80;47.50
54938;DHT22;52756;52.826;6.214;2023-05-29T06:41:36;17.80;47.10
54938;DHT22;52756;52.826;6.214;2023-05-29T06:44:01;17.90;46.80
54938;DHT22;52756;52.826;6.214;2023-05-29T06:46:27;17.90;46.10
54938;DHT22;52756;52.826;6.214;2023-05-29T06:48:53;17.80;45.90
54938;DHT22;52756;52.826;6.214;2023-05-29T06:51:18;17.80;46.20
54938;DHT22;52756;52.826;6.214;2023-05-29T06:53:44;17.70;45.80
54938;DHT22;52756;52.826;6.214;2023-05-29T06:56:10;17.60;45.80
54938;DHT22;52756;52.826;6.214;2023-05-29T06:58:36;17.60;45.70
54938;DHT22;52756;52.826;6.214;2023-05-29T07:01:01;17.50;46.10
54938;DHT22;52756;52.826;6.214;2023-05-29T07:03:27;17.40;45.90
54938;DHT22;52756;52.826;6.214;2023-05-29T07:05:53;17.30;46.30
54938;DHT22;52756;52.826;6.214;2023-05-29T07:08:19;17.20;46.50
54938;DHT22;52756;52.826;6.214;2023-05-29T07:10:45;17.20;46.80
54938;DHT22;52756;52.826;6.214;2023-05-29T07:13:15;17.10;46.90
54938;DHT22;52756;52.826;6.214;2023-05-29T07:15:41;17.00;47.20
54938;DHT22;52756;52.826;6.214;2023-05-29T07:18:07;17.00;47.10
54938;DHT22;52756;52.826;6.214;2023-05-29T07:20:33;16.90;47.00
54938;DHT22;52756;52.826;6.214;2023-05-29T07:22:58;16.80;46.30
54938;DHT22;52756;52.826;6.214;2023-05-29T07:25:24;16.80;46.80
54938;DHT22;52756;52.826;6.214;2023-05-29T07:27:51;16.80;47.40
54938;DHT22;52756;52.826;6.214;2023-05-29T07:30:17;16.80;47.30
54938;DHT22;52756;52.826;6.214;2023-05-29T07:32:44;16.80;46.80
54938;DHT22;52756;52.826;6.214;2023-05-29T07:35:09;16.70;47.00
54938;DHT22;52756;52.826;6.214;2023-05-29T07:37:35;16.70;47.50
54938;DHT22;52756;52.826;6.214;2023-05-29T07:40:01;16.80;48.40
54938;DHT22;52756;52.826;6.214;2023-05-29T07:42:27;16.80;47.70
54938;DHT22;52756;52.826;6.214;2023-05-29T07:44:53;16.90;47.30
54938;DHT22;52756;52.826;6.214;2023-05-29T07:47:18;16.90;47.80
54938;DHT22;52756;52.826;6.214;2023-05-29T07:49:44;16.90;47.30
54938;DHT22;52756;52.826;6.214;2023-05-29T07:52:10;16.90;47.40
54938;DHT22;52756;52.826;6.214;2023-05-29T07:54:35;17.00;47.50
54938;DHT22;52756;52.826;6.214;2023-05-29T07:57:01;17.00;47.60
54938;DHT22;52756;52.826;6.214;2023-05-29T07:59:35;17.10;47.30
54938;DHT22;52756;52.826;6.214;2023-05-29T08:02:01;17.30;47.80
54938;DHT22;52756;52.826;6.214;2023-05-29T08:04:28;17.40;48.00
54938;DHT22;52756;52.826;6.214;2023-05-29T08:06:54;17.50;47.50
54938;DHT22;52756;52.826;6.214;2023-05-29T08:09:20;17.60;47.60
54938;DHT22;52756;52.826;6.214;2023-05-29T08:11:46;17.70;47.10
54938;DHT22;52756;52.826;6.214;2023-05-29T08:14:14;17.80;46.60
54938;DHT22;52756;52.826;6.214;2023-05-29T08:16:41;17.90;47.00
54938;DHT22;52756;52.826;6.214;2023-05-29T08:19:06;17.90;46.50
54938;DHT22;52756;52.826;6.214;2023-05-29T08:21:32;18.10;46.10
54938;DHT22;52756;52.826;6.214;2023-05-29T08:23:58;18.20;46.10
54938;DHT22;52756;52.826;6.214;2023-05-29T08:26:25;18.30;45.60
54938;DHT22;52756;52.826;6.214;2023-05-29T08:28:51;18.50;44.90
54938;DHT22;52756;52.826;6.214;2023-05-29T08:31:17;18.50;44.90
54938;DHT22;52756;52.826;6.214;2023-05-29T08:33:42;18.50;45.10
54938;DHT22;52756;52.826;6.214;2023-05-29T08:36:08;18.50;45.00
54938;DHT22;52756;52.826;6.214;2023-05-29T08:38:34;18.50;45.50
54938;DHT22;52756;52.826;6.214;2023-05-29T08:41:00;18.50;45.60
54938;DHT22;52756;52.826;6.214;2023-05-29T08:43:31;18.60;45.50
54938;DHT22;52756;52.826;6.214;2023-05-29T08:46:03;18.70;44.60
54938;DHT22;52756;52.826;6.214;2023-05-29T08:48:29;18.70;44.30
54938;DHT22;52756;52.826;6.214;2023-05-29T08:50:57;18.80;44.90
54938;DHT22;52756;52.826;6.214;2023-05-29T08:53:25;18.80;44.80
54938;DHT22;52756;52.826;6.214;2023-05-29T08:55:52;18.90;44.60
54938;DHT22;52756;52.826;6.214;2023-05-29T08:58:21;18.90;44.80
54938;DHT22;52756;52.826;6.214;2023-05-29T09:00:49;19.00;44.20
54938;DHT22;52756;52.826;6.214;2023-05-29T09:03:15;19.00;44.60
54938;DHT22;52756;52.826;6.214;2023-05-29T09:05:41;19.00;44.70
54938;DHT22;52756;52.826;6.214;2023-05-29T09:08:08;19.00;44.40
54938;DHT22;52756;52.826;6.214;2023-05-29T09:10:35;19.00;44.30
54938;DHT22;52756;52.826;6.214;2023-05-29T09:13:02;19.00;43.50
54938;DHT22;52756;52.826;6.214;2023-05-29T09:15:28;19.00;43.00
54938;DHT22;52756;52.826;6.214;2023-05-29T09:17:55;19.00;43.70
54938;DHT22;52756;52.826;6.214;2023-05-29T09:20:23;19.00;43.60
54938;DHT22;52756;52.826;6.214;2023-05-29T09:23:00;19.00;43.00
54938;DHT22;52756;52.826;6.214;2023-05-29T09:25:28;18.90;42.70
54938;DHT22;52756;52.826;6.214;2023-05-29T09:28:02;18.80;42.50
54938;DHT22;52756;52.826;6.214;2023-05-29T09:30:43;18.70;42.80
54938;DHT22;52756;52.826;6.214;2023-05-29T09:33:10;18.60;42.90
54938;DHT22;52756;52.826;6.214;2023-05-29T09:35:38;18.50;43.50
54938;DHT22;52756;52.826;6.214;2023-05-29T09:38:06;18.50;43.80
54938;DHT22;52756;52.826;6.214;2023-05-29T09:40:33;18.50;44.40
54938;DHT22;52756;52.826;6.214;2023-05-29T09:43:03;18.50;44.40
54938;DHT22;52756;52.826;6.214;2023-05-29T09:45:30;18.50;44.30
54938;DHT22;52756;52.826;6.214;2023-05-29T09:47:56;18.50;44.50
54938;DHT22;52756;52.826;6.214;2023-05-29T09:50:25;18.50;44.20
54938;DHT22;52756;52.826;6.214;2023-05-29T09:52:51;18.50;44.00
54938;DHT22;52756;52.826;6.214;2023-05-29T09:55:23;18.50;43.90
54938;DHT22;52756;52.826;6.214;2023-05-29T09:57:53;18.40;44.00
54938;DHT22;52756;52.826;6.214;2023-05-29T10:00:19;18.50;44.80
54938;DHT22;52756;52.826;6.214;2023-05-29T10:02:45;18.50;45.50
54938;DHT22;52756;52.826;6.214;2023-05-29T10:05:11;18.50;45.80
54938;DHT22;52756;52.826;6.214;2023-05-29T10:07:40;18.50;44.60
54938;DHT22;52756;52.826;6.214;2023-05-29T10:10:11;18.60;44.70
54938;DHT22;52756;52.826;6.214;2023-05-29T10:12:44;18.60;44.90
54938;DHT22;52756;52.826;6.214;2023-05-29T10:15:13;18.70;45.10
54938;DHT22;52756;52.826;6.214;2023-05-29T10:17:44;18.80;45.10
54938;DHT22;52756;52.826;6.214;2023-05-29T10:20:15;18.90;45.40
54938;DHT22;52756;52.826;6.214;2023-05-29T10:22:45;18.90;45.60
54938;DHT22;52756;52.826;6.214;2023-05-29T10:25:13;19.00;45.40
54938;DHT22;52756;52.826;6.214;2023-05-29T10:27:40;19.00;44.00
54938;DHT22;52756;52.826;6.214;2023-05-29T10:30:21;19.00;43.70
54938;DHT22;52756;52.826;6.214;2023-05-29T10:38:33;19.10;43.20
54938;DHT22;52756;52.826;6.214;2023-05-29T10:44:01;19.20;43.40
54938;DHT22;52756;52.826;6.214;2023-05-29T10:49:21;19.30;43.60
54938;DHT22;52756;52.826;6.214;2023-05-29T10:51:48;19.30;44.00
54938;DHT22;52756;52.826;6.214;2023-05-29T10:54:14;19.40;44.30
54938;DHT22;52756;52.826;6.214;2023-05-29T10:56:44;19.50;43.60
54938;DHT22;52756;52.826;6.214;2023-05-29T10:59:10;19.50;43.20
54938;DHT22;52756;52.826;6.214;2023-05-29T11:01:38;19.60;43.20
54938;DHT22;52756;52.826;6.214;2023-05-29T11:06:46;19.80;43.00
54938;DHT22;52756;52.826;6.214;2023-05-29T11:09:37;19.80;43.10
54938;DHT22;52756;52.826;6.214;2023-05-29T11:12:23;19.80;43.00
54938;DHT22;52756;52.826;6.214;2023-05-29T11:15:10;19.80;42.80
54938;DHT22;52756;52.826;6.214;2023-05-29T11:20:05;19.80;42.80
54938;DHT22;52756;52.826;6.214;2023-05-29T11:23:04;19.90;42.20
54938;DHT22;52756;52.826;6.214;2023-05-29T11:25:35;19.90;42.10
54938;DHT22;52756;52.826;6.214;2023-05-29T11:28:02;19.80;42.20
54938;DHT22;52756;52.826;6.214;2023-05-29T11:30:30;19.80;42.50
54938;DHT22;52756;52.826;6.214;2023-05-29T11:33:00;19.80;42.00
54938;DHT22;52756;52.826;6.214;2023-05-29T11:35:29;19.80;41.40
54938;DHT22;52756;52.826;6.214;2023-05-29T11:37:57;19.70;41.60
54938;DHT22;52756;52.826;6.214;2023-05-29T11:40:23;19.70;41.20
54938;DHT22;52756;52.826;6.214;2023-05-29T11:42:50;19.70;41.50
54938;DHT22;52756;52.826;6.214;2023-05-29T11:45:17;19.60;41.90
54938;DHT22;52756;52.826;6.214;2023-05-29T11:47:57;19.60;41.60
54938;DHT22;52756;52.826;6.214;2023-05-29T11:50:28;19.60;41.90
54938;DHT22;52756;52.826;6.214;2023-05-29T11:52:56;19.60;42.00
54938;DHT22;52756;52.826;6.214;2023-05-29T11:55:22;19.60;42.50
54938;DHT22;52756;52.826;6.214;2023-05-29T11:57:59;19.60;42.80
54938;DHT22;52756;52.826;6.214;2023-05-29T12:00:26;19.60;42.50
54938;DHT22;52756;52.826;6.214;2023-05-29T12:02:57;19.70;43.10
54938;DHT22;52756;52.826;6.214;2023-05-29T12:05:23;19.80;42.70
54938;DHT22;52756;52.826;6.214;2023-05-29T12:07:56;19.90;42.00
54938;DHT22;52756;52.826;6.214;2023-05-29T12:10:22;19.90;41.30
54938;DHT22;52756;52.826;6.214;2023-05-29T12:12:59;19.90;41.70
54938;DHT22;52756;52.826;6.214;2023-05-29T12:15:27;19.90;41.90
54938;DHT22;52756;52.826;6.214;2023-05-29T12:17:53;19.90;41.10
54938;DHT22;52756;52.826;6.214;2023-05-29T12:20:22;19.90;41.30
54938;DHT22;52756;52.826;6.214;2023-05-29T12:22:49;19.90;41.30
54938;DHT22;52756;52.826;6.214;2023-05-29T12:25:20;19.90;41.20
54938;DHT22;52756;52.826;6.214;2023-05-29T12:27:47;19.90;41.50
54938;DHT22;52756;52.826;6.214;2023-05-29T12:30:19;19.90;41.70
54938;DHT22;52756;52.826;6.214;2023-05-29T12:32:47;20.00;41.20
54938;DHT22;52756;52.826;6.214;2023-05-29T12:35:20;19.90;41.20
54938;DHT22;52756;52.826;6.214;2023-05-29T12:37:56;19.90;41.50
54938;DHT22;52756;52.826;6.214;2023-05-29T12:40:24;20.00;41.70
54938;DHT22;52756;52.826;6.214;2023-05-29T12:43:05;19.90;41.70
54938;DHT22;52756;52.826;6.214;2023-05-29T12:45:32;20.00;41.60
54938;DHT22;52756;52.826;6.214;2023-05-29T12:48:03;20.10;41.60
54938;DHT22;52756;52.826;6.214;2023-05-29T12:53:01;20.10;40.80
54938;DHT22;52756;52.826;6.214;2023-05-29T12:55:28;20.20;39.90
54938;DHT22;52756;52.826;6.214;2023-05-29T12:57:57;20.20;39.30
54938;DHT22;52756;52.826;6.214;2023-05-29T13:00:23;20.20;39.30
54938;DHT22;52756;52.826;6.214;2023-05-29T13:02:49;20.20;40.10
54938;DHT22;52756;52.826;6.214;2023-05-29T13:05:16;20.30;40.10
54938;DHT22;52756;52.826;6.214;2023-05-29T13:07:47;20.30;39.60
54938;DHT22;52756;52.826;6.214;2023-05-29T13:10:14;20.40;39.50
54938;DHT22;52756;52.826;6.214;2023-05-29T13:12:41;20.40;39.10
54938;DHT22;52756;52.826;6.214;2023-05-29T13:15:07;20.50;39.20
54938;DHT22;52756;52.826;6.214;2023-05-29T13:17:33;20.50;39.40
54938;DHT22;52756;52.826;6.214;2023-05-29T13:19:59;20.50;39.70
54938;DHT22;52756;52.826;6.214;2023-05-29T13:22:25;20.60;39.10
54938;DHT22;52756;52.826;6.214;2023-05-29T13:24:57;20.60;39.20
54938;DHT22;52756;52.826;6.214;2023-05-29T13:27:24;20.50;39.80
54938;DHT22;52756;52.826;6.214;2023-05-29T13:29:50;20.60;40.00
54938;DHT22;52756;52.826;6.214;2023-05-29T13:32:16;20.60;38.80
54938;DHT22;52756;52.826;6.214;2023-05-29T13:34:42;20.50;38.00
54938;DHT22;52756;52.826;6.214;2023-05-29T13:37:08;20.40;38.40
54938;DHT22;52756;52.826;6.214;2023-05-29T13:39:33;20.30;39.20
54938;DHT22;52756;52.826;6.214;2023-05-29T13:41:59;20.30;39.20
54938;DHT22;52756;52.826;6.214;2023-05-29T13:44:25;20.20;39.10
54938;DHT22;52756;52.826;6.214;2023-05-29T13:46:51;20.10;39.80
54938;DHT22;52756;52.826;6.214;2023-05-29T13:49:18;20.10;39.60
54938;DHT22;52756;52.826;6.214;2023-05-29T13:51:44;20.10;39.60
54938;DHT22;52756;52.826;6.214;2023-05-29T13:54:12;20.20;39.60
54938;DHT22;52756;52.826;6.214;2023-05-29T13:56:38;20.20;39.90
54938;DHT22;52756;52.826;6.214;2023-05-29T13:59:03;20.30;40.20
54938;DHT22;52756;52.826;6.214;2023-05-29T14:01:32;20.40;39.30
54938;DHT22;52756;52.826;6.214;2023-05-29T14:03:59;20.50;38.90
54938;DHT22;52756;52.826;6.214;2023-05-29T14:06:25;20.50;39.00
54938;DHT22;52756;52.826;6.214;2023-05-29T14:08:51;20.50;38.00
54938;DHT22;52756;52.826;6.214;2023-05-29T14:11:17;20.60;37.60
54938;DHT22;52756;52.826;6.214;2023-05-29T14:13:42;20.60;37.70
54938;DHT22;52756;52.826;6.214;2023-05-29T14:16:08;20.60;38.50
54938;DHT22;52756;52.826;6.214;2023-05-29T14:18:34;20.70;37.10
54938;DHT22;52756;52.826;6.214;2023-05-29T14:20:59;20.70;37.20
54938;DHT22;52756;52.826;6.214;2023-05-29T14:23:25;20.70;37.90
54938;DHT22;52756;52.826;6.214;2023-05-29T14:25:51;20.70;38.10
54938;DHT22;52756;52.826;6.214;2023-05-29T14:28:17;20.70;37.60
54938;DHT22;52756;52.826;6.214;2023-05-29T14:30:43;20.60;37.30
54938;DHT22;52756;52.826;6.214;2023-05-29T14:33:09;20.70;38.10
54938;DHT22;52756;52.826;6.214;2023-05-29T14:35:35;20.80;38.10
54938;DHT22;52756;52.826;6.214;2023-05-29T14:38:00;20.80;38.00
54938;DHT22;52756;52.826;6.214;2023-05-29T14:40:26;20.80;37.70
54938;DHT22;52756;52.826;6.214;2023-05-29T14:42:53;20.80;37.10
54938;DHT22;52756;52.826;6.214;2023-05-29T14:45:19;20.80;37.30
54938;DHT22;52756;52.826;6.214;2023-05-29T14:47:44;20.80;36.90
54938;DHT22;52756;52.826;6.214;2023-05-29T14:50:11;20.80;37.20
54938;DHT22;52756;52.826;6.214;2023-05-29T14:52:37;20.70;37.30
54938;DHT22;52756;52.826;6.214;2023-05-29T14:55:04;20.70;37.30
54938;DHT22;52756;52.826;6.214;2023-05-29T14:57:31;20.70;37.10
54938;DHT22;52756;52.826;6.214;2023-05-29T14:59:59;20.70;36.20
54938;DHT22;52756;52.826;6.214;2023-05-29T15:02:24;20.70;35.90
54938;DHT22;52756;52.826;6.214;2023-05-29T15:04:50;20.70;36.80
54938;DHT22;52756;52.826;6.214;2023-05-29T15:07:17;20.70;36.30
54938;DHT22;52756;52.826;6.214;2023-05-29T15:09:43;20.60;36.30
54938;DHT22;52756;52.826;6.214;2023-05-29T15:12:09;20.60;36.70
54938;DHT22;52756;52.826;6.214;2023-05-29T15:14:35;20.60;36.90
54938;DHT22;52756;52.826;6.214;2023-05-29T15:17:01;20.60;36.90
54938;DHT22;52756;52.826;6.214;2023-05-29T15:19:27;20.60;36.90
54938;DHT22;52756;52.826;6.214;2023-05-29T15:21:53;20.50;36.60
54938;DHT22;52756;52.826;6.214;2023-05-29T15:24:18;20.50;36.70
54938;DHT22;52756;52.826;6.214;2023-05-29T15:26:44;20.50;36.20
54938;DHT22;52756;52.826;6.214;2023-05-29T15:29:10;20.50;35.70
54938;DHT22;52756;52.826;6.214;2023-05-29T15:31:36;20.50;35.80
54938;DHT22;52756;52.826;6.214;2023-05-29T15:34:02;20.50;36.10
54938;DHT22;52756;52.826;6.214;2023-05-29T15:36:28;20.40;35.60
54938;DHT22;52756;52.826;6.214;2023-05-29T15:38:54;20.40;35.20
54938;DHT22;52756;52.826;6.214;2023-05-29T15:41:20;20.40;35.80
54938;DHT22;52756;52.826;6.214;2023-05-29T15:43:46;20.40;35.50
54938;DHT22;52756;52.826;6.214;2023-05-29T15:46:12;20.40;35.60
54938;DHT22;52756;52.826;6.214;2023-05-29T15:48:38;20.40;35.90
54938;DHT22;52756;52.826;6.214;2023-05-29T15:51:03;20.40;36.10
54938;DHT22;52756;52.826;6.214;2023-05-29T15:53:29;20.40;36.10
54938;DHT22;52756;52.826;6.214;2023-05-29T15:55:55;20.40;36.00
54938;DHT22;52756;52.826;6.214;2023-05-29T15:58:21;20.40;35.60
54938;DHT22;52756;52.826;6.214;2023-05-29T16:00:47;20.30;34.70